KFRI/FRI METAR and TAF weather

Enter ICAO airport designator
Station Type Date Time Source
KFRI METAR 2019/12/08 23:56 UTC NOAA

KFRI 082356Z AUTO 00000KT 10SM OVC150 07/03 A2967 RMK AO2 SLP050 T00740033 10108 20073 55005


Station Type Date Time Source
KFRI Decoded METAR 2019/12/08 23:56 UTC NOAA

Fort Riley, Marshall AAF Ft Riley, KS, United States (KFRI) 39-03-20N 096-45-51W
Dec 08, 2019 - 06:56 PM EST / 2019.12.08 2356 UTC
Wind: Calm:0
Visibility: 10 mile(s):0
Sky conditions: overcast
Temperature: 45.3 F (7.4 C)
Dew Point: 37.9 F (3.3 C)
Relative Humidity: 75%
Pressure (altimeter): 29.67 in. Hg (1004 hPa)
Pressure tendency: 0.01 inches (0.5 hPa) lower than three hours ago
ob: KFRI 082356Z AUTO 00000KT 10SM OVC150 07/03 A2967 RMK AO2 SLP050 T00740033 10108 20073 55005
cycle: 0

Station Type Date Time Source
KFRI TAF 2019/12/08 20:26 UTC NOAA

TAF
AMD KFRI 082000Z 0820/0919 22009KT 9999 FEW250 QNH2968INS
BECMG 0905/0906 32012KT 9999 SCT150 QNH2965INS
BECMG 0914/0915 33020G30KT 9999 FEW200 510003 QNH2976INS TX14/0821Z TNM01/0912Z LAST NO
AMDS AFT 0820 NEXT 0905

Example: see airport list